createdAt,value
2022-08-17T00:00:12.006Z,99551.06
2022-08-17T00:03:35.889Z,99560.78
2022-08-17T00:06:12.048Z,99553.72
2022-08-17T00:08:50.725Z,99561.69
2022-08-17T00:11:35.721Z,99562.69
2022-08-17T00:14:11.805Z,99557.31
2022-08-17T00:16:56.264Z,99552.13
2022-08-17T00:19:26.908Z,99555.66
2022-08-17T00:22:33.213Z,99550.38
2022-08-17T00:24:47.872Z,99537.06
2022-08-17T00:27:15.193Z,99549.47
2022-08-17T00:29:42.723Z,99557.53
2022-08-17T00:33:12.123Z,99545.16
2022-08-17T00:34:57.717Z,99551.34
2022-08-17T00:37:25.632Z,99548.69
2022-08-17T00:39:53.132Z,99554.91
2022-08-17T00:42:20.578Z,99544.25
2022-08-17T00:44:47.881Z,99546.03
2022-08-17T00:47:15.419Z,99544.22
2022-08-17T00:49:42.765Z,99545.13
2022-08-17T00:52:22.998Z,99545.16
2022-08-17T00:54:54.185Z,99537.16
2022-08-17T00:57:36.890Z,99539.78
2022-08-17T01:00:29.220Z,99554.00
2022-08-17T01:03:10.102Z,99550.38
2022-08-17T01:05:42.323Z,99552.16
2022-08-17T01:08:15.768Z,99548.59
2022-08-17T01:10:59.652Z,99553.06
2022-08-17T01:13:41.421Z,99550.38
2022-08-17T01:16:30.007Z,99547.69
2022-08-17T01:19:13.038Z,99557.47
2022-08-17T01:22:09.889Z,99553.06
2022-08-17T01:24:57.325Z,99551.31
2022-08-17T01:27:26.371Z,99546.88
2022-08-17T01:30:05.994Z,99550.44
2022-08-17T01:32:53.236Z,99555.78
2022-08-17T01:35:20.570Z,99559.31
2022-08-17T01:37:47.948Z,99554.88
2022-08-17T01:40:23.801Z,99562.00
2022-08-17T01:43:00.875Z,99553.97
2022-08-17T01:45:33.783Z,99554.00
2022-08-17T01:48:01.497Z,99557.53
2022-08-17T01:50:43.264Z,99552.25
2022-08-17T01:53:37.930Z,99557.56
2022-08-17T01:56:17.439Z,99554.00
2022-08-17T01:58:45.641Z,99551.34
2022-08-17T02:01:23.801Z,99550.47
2022-08-17T02:03:59.376Z,99554.97
2022-08-17T02:06:44.986Z,99559.44
2022-08-17T02:09:25.326Z,99562.13
2022-08-17T02:11:56.315Z,99566.59
2022-08-17T02:14:25.767Z,99569.25
2022-08-17T02:16:54.351Z,99568.34
2022-08-17T02:19:22.307Z,99568.34
2022-08-17T02:21:54.266Z,99559.50
2022-08-17T02:25:01.293Z,99561.28
2022-08-17T02:27:17.141Z,99563.09
2022-08-17T02:29:44.745Z,99568.44
2022-08-17T02:32:27.898Z,99562.25
2022-08-17T02:34:58.056Z,99560.47
2022-08-17T02:37:28.065Z,99558.78
2022-08-17T02:39:57.238Z,99558.81
2022-08-17T02:42:38.203Z,99554.38
2022-08-17T02:45:17.371Z,99557.91
2022-08-17T02:47:46.584Z,99557.06
2022-08-17T02:50:18.336Z,99558.81
2022-08-17T02:52:47.481Z,99549.06
2022-08-17T02:55:38.278Z,99546.41
2022-08-17T02:58:07.007Z,99539.25
2022-08-17T03:00:41.506Z,99536.59
2022-08-17T03:03:13.476Z,99540.19
2022-08-17T03:05:41.805Z,99533.13
2022-08-17T03:08:13.214Z,99523.34
2022-08-17T03:10:41.986Z,99527.81
2022-08-17T03:13:09.888Z,99530.50
2022-08-17T03:15:40.629Z,99540.25
2022-08-17T03:18:09.036Z,99545.59
2022-08-17T03:20:39.629Z,99549.19
2022-08-17T03:23:08.348Z,99561.59
2022-08-17T03:25:44.018Z,99560.75
2022-08-17T03:28:12.296Z,99550.09
2022-08-17T03:30:40.669Z,99555.41
2022-08-17T03:33:10.209Z,99551.84
2022-08-17T03:35:40.352Z,99553.59
2022-08-17T03:38:14.994Z,99552.75
2022-08-17T03:40:57.509Z,99556.31
2022-08-17T03:43:32.018Z,99547.47
2022-08-17T03:46:28.837Z,99552.78
2022-08-17T03:49:26.944Z,99555.44
2022-08-17T03:52:15.381Z,99541.25
2022-08-17T03:55:03.954Z,99544.81
2022-08-17T03:57:32.590Z,99549.25
2022-08-17T04:00:00.134Z,99553.66
2022-08-17T04:02:34.030Z,99552.81
2022-08-17T04:05:01.804Z,99566.13
2022-08-17T04:07:31.521Z,99551.00
2022-08-17T04:09:59.534Z,99540.38
2022-08-17T04:12:31.861Z,99535.03
2022-08-17T04:14:59.576Z,99541.25
2022-08-17T04:17:29.434Z,99542.16
2022-08-17T04:19:57.174Z,99547.47
2022-08-17T04:22:30.600Z,99541.25
2022-08-17T04:25:18.034Z,99561.63
2022-08-17T04:27:45.323Z,99563.44
2022-08-17T04:30:13.396Z,99570.50
2022-08-17T04:33:07.297Z,99572.28
2022-08-17T04:35:50.491Z,99584.72
2022-08-17T04:38:24.404Z,99593.56
2022-08-17T04:41:11.883Z,99597.13
2022-08-17T04:43:42.121Z,99598.00
2022-08-17T04:46:20.665Z,99590.03
2022-08-17T04:48:57.441Z,99601.53
2022-08-17T04:51:40.095Z,99623.75
2022-08-17T04:54:21.929Z,99615.78
2022-08-17T04:56:49.310Z,99619.31
2022-08-17T04:59:21.535Z,99630.81
2022-08-17T05:01:52.013Z,99630.81
2022-08-17T05:04:34.325Z,99639.69
2022-08-17T05:07:04.518Z,99652.09
2022-08-17T05:09:32.220Z,99651.22
2022-08-17T05:12:03.535Z,99656.53
2022-08-17T05:14:32.440Z,99665.38
2022-08-17T05:17:01.682Z,99667.16
2022-08-17T05:19:34.369Z,99665.34
2022-08-17T05:22:06.126Z,99672.47
2022-08-17T05:24:38.287Z,99675.09
2022-08-17T05:27:06.879Z,99671.56
2022-08-17T05:29:35.583Z,99675.97
2022-08-17T05:32:38.769Z,99680.38
2022-08-17T05:35:01.796Z,99679.47
2022-08-17T05:37:29.223Z,99684.78
2022-08-17T05:39:57.010Z,99702.53
2022-08-17T05:42:24.640Z,99699.88
2022-08-17T05:44:52.277Z,99707.81
2022-08-17T05:47:23.120Z,99708.69
2022-08-17T05:49:50.683Z,99706.84
2022-08-17T05:53:01.946Z,99690.84
2022-08-17T05:56:29.226Z,99703.25
2022-08-17T05:59:35.613Z,99697.75
2022-08-17T06:03:07.001Z,99694.03
2022-08-17T06:06:21.326Z,99706.41
2022-08-17T06:09:33.811Z,99703.72
2022-08-17T06:12:50.922Z,99708.09
2022-08-17T06:15:30.530Z,99725.00
2022-08-17T06:18:05.969Z,99723.22
2022-08-17T06:20:53.918Z,99716.13
2022-08-17T06:24:07.426Z,99714.34
2022-08-17T06:26:43.197Z,99701.03
2022-08-17T06:29:56.728Z,99707.22
2022-08-17T06:32:25.383Z,99696.38
2022-08-17T06:34:53.752Z,99694.47
2022-08-17T06:37:48.763Z,99700.56
2022-08-17T06:40:49.459Z,99698.72
2022-08-17T06:43:46.139Z,99687.88
2022-08-17T06:46:48.513Z,99699.25
2022-08-17T06:49:49.510Z,99702.94
2022-08-17T06:52:46.879Z,99698.41
2022-08-17T06:55:46.579Z,99674.47
2022-08-17T06:58:21.173Z,99666.44
2022-08-17T07:00:58.499Z,99666.44
2022-08-17T07:03:54.301Z,99668.31
2022-08-17T07:06:37.799Z,99660.28
2022-08-17T07:09:34.302Z,99659.34
2022-08-17T07:12:23.120Z,99638.72
2022-08-17T07:15:17.647Z,99635.16
2022-08-17T07:17:48.384Z,99648.41
2022-08-17T07:20:22.408Z,99650.03
2022-08-17T07:23:04.637Z,99648.44
2022-08-17T07:25:32.675Z,99634.03
2022-08-17T07:28:06.999Z,99644.69
2022-08-17T07:30:48.894Z,99642.84
2022-08-17T07:33:30.160Z,99644.72
2022-08-17T07:35:59.330Z,99652.44
2022-08-17T07:38:35.522Z,99660.19
2022-08-17T07:41:08.797Z,99656.59
2022-08-17T07:43:40.848Z,99668.13
2022-08-17T07:46:46.119Z,99665.56
2022-08-17T07:49:13.288Z,99671.13
2022-08-17T07:52:51.071Z,99684.56
2022-08-17T07:55:35.395Z,99701.22
2022-08-17T07:58:03.530Z,99704.63
2022-08-17T08:00:33.059Z,99733.00
2022-08-17T08:03:23.699Z,99745.66
2022-08-17T08:06:02.087Z,99741.88
2022-08-17T08:08:43.094Z,99727.56
2022-08-17T08:11:17.910Z,99698.09
2022-08-17T08:13:49.886Z,99695.34
2022-08-17T08:16:29.701Z,99697.88
2022-08-17T08:19:01.508Z,99709.25
2022-08-17T08:21:48.170Z,99727.19
2022-08-17T08:24:43.664Z,99740.41
2022-08-17T08:27:41.909Z,99739.22
2022-08-17T08:30:15.090Z,99749.09
2022-08-17T08:33:29.426Z,99735.25
2022-08-17T08:37:14.168Z,99740.06
2022-08-17T08:40:11.460Z,99744.34
2022-08-17T08:43:36.351Z,99753.06
2022-08-17T08:46:35.535Z,99743.88
2022-08-17T08:50:03.305Z,99741.03
2022-08-17T08:53:12.356Z,99717.25
2022-08-17T08:55:53.471Z,99705.75
2022-08-17T08:58:41.745Z,99702.13
2022-08-17T09:01:39.412Z,99702.50
2022-08-17T09:05:09.965Z,99710.16
2022-08-17T09:07:44.934Z,99707.16
2022-08-17T09:10:30.147Z,99706.72
2022-08-17T09:13:10.521Z,99692.22
2022-08-17T09:15:48.801Z,99692.03
2022-08-17T09:19:01.700Z,99695.28
2022-08-17T09:21:48.753Z,99689.94
2022-08-17T09:24:41.678Z,99692.97
2022-08-17T09:27:50.945Z,99701.63
2022-08-17T09:30:21.089Z,99703.22
2022-08-17T09:33:02.256Z,99697.78
2022-08-17T09:35:39.856Z,99693.97
2022-08-17T09:38:41.705Z,99700.91
2022-08-17T09:41:24.121Z,99717.75
2022-08-17T09:44:23.333Z,99732.66
2022-08-17T09:47:16.968Z,99727.44
2022-08-17T09:50:01.760Z,99724.47
2022-08-17T09:52:31.574Z,99712.97
2022-08-17T09:55:01.740Z,99706.72
2022-08-17T09:57:53.718Z,99713.94
2022-08-17T10:00:29.182Z,99717.00
2022-08-17T10:04:10.875Z,99714.50
2022-08-17T10:07:24.693Z,99715.66
2022-08-17T10:10:41.854Z,99725.03
2022-08-17T10:13:59.536Z,99727.75
2022-08-17T10:16:42.826Z,99729.97
2022-08-17T10:19:30.711Z,99718.88
2022-08-17T10:22:35.022Z,99722.72
2022-08-17T10:25:48.569Z,99707.41
2022-08-17T10:28:29.512Z,99711.66
2022-08-17T10:31:33.019Z,99701.94
2022-08-17T10:34:08.504Z,99692.53
2022-08-17T10:36:59.949Z,99699.84
2022-08-17T10:39:57.543Z,99700.25
2022-08-17T10:43:04.809Z,99703.28
2022-08-17T10:46:42.317Z,99709.75
2022-08-17T10:49:18.709Z,99704.38
2022-08-17T10:51:53.449Z,99712.63
2022-08-17T10:55:05.934Z,99704.69
2022-08-17T10:57:43.650Z,99718.75
2022-08-17T11:00:18.624Z,99709.59
2022-08-17T11:02:54.823Z,99701.47
2022-08-17T11:05:44.187Z,99707.78
2022-08-17T11:08:32.419Z,99702.38
2022-08-17T11:11:20.107Z,99702.03
2022-08-17T11:14:09.991Z,99697.50
2022-08-17T11:17:15.103Z,99686.00
2022-08-17T11:20:06.497Z,99684.84
2022-08-17T11:23:28.530Z,99679.06
2022-08-17T11:26:08.198Z,99684.66
2022-08-17T11:28:52.782Z,99662.94
2022-08-17T11:31:39.865Z,99668.25
2022-08-17T11:34:30.203Z,99667.25
2022-08-17T11:37:33.270Z,99661.91
2022-08-17T11:40:26.273Z,99657.38
2022-08-17T11:43:21.101Z,99648.72
2022-08-17T11:46:20.278Z,99643.69
2022-08-17T11:49:22.181Z,99656.50
2022-08-17T11:52:01.650Z,99661.09
2022-08-17T11:54:41.060Z,99651.34
2022-08-17T11:57:26.610Z,99650.91
2022-08-17T12:00:38.813Z,99641.53
2022-08-17T12:03:31.738Z,99641.13
2022-08-17T12:06:17.000Z,99636.78
2022-08-17T12:08:55.211Z,99638.19
2022-08-17T12:12:13.431Z,99639.00
2022-08-17T12:15:11.035Z,99633.66
2022-08-17T12:17:42.608Z,99637.59
2022-08-17T12:20:24.757Z,99641.09
2022-08-17T12:23:16.210Z,99639.13
2022-08-17T12:26:01.060Z,99647.81
2022-08-17T12:28:37.212Z,99660.78
2022-08-17T12:31:25.015Z,99661.53
2022-08-17T12:33:53.013Z,99671.50
2022-08-17T12:36:25.915Z,99676.84
2022-08-17T12:39:12.783Z,99677.88
2022-08-17T12:41:50.981Z,99681.41
2022-08-17T12:44:24.162Z,99680.88
2022-08-17T12:47:20.960Z,99677.97
2022-08-17T12:49:55.389Z,99677.28
2022-08-17T12:52:32.919Z,99676.66
2022-08-17T12:55:21.067Z,99673.41
2022-08-17T12:57:55.673Z,99676.31
2022-08-17T13:00:41.175Z,99670.72
2022-08-17T13:03:35.718Z,99672.72
2022-08-17T13:06:14.896Z,99677.06
2022-08-17T13:08:48.014Z,99670.72
2022-08-17T13:11:16.444Z,99666.41
2022-08-17T13:13:50.793Z,99672.88
2022-08-17T13:16:22.866Z,99663.28
2022-08-17T13:18:58.311Z,99665.88
2022-08-17T13:21:30.487Z,99670.78
2022-08-17T13:24:22.305Z,99660.50
2022-08-17T13:26:59.152Z,99650.72
2022-08-17T13:29:51.192Z,99657.44
2022-08-17T13:32:37.992Z,99648.53
2022-08-17T13:35:40.978Z,99655.19
2022-08-17T13:38:14.746Z,99648.78
2022-08-17T13:40:53.077Z,99651.63
2022-08-17T13:43:46.325Z,99643.72
2022-08-17T13:46:28.677Z,99644.81
2022-08-17T13:49:11.649Z,99645.19
2022-08-17T13:51:46.336Z,99643.69
2022-08-17T13:54:34.777Z,99634.28
2022-08-17T13:57:18.512Z,99639.72
2022-08-17T13:59:55.214Z,99641.16
2022-08-17T14:02:27.227Z,99631.56
2022-08-17T14:04:58.405Z,99629.88
2022-08-17T14:07:36.976Z,99616.88
2022-08-17T14:10:18.251Z,99609.13
2022-08-17T14:12:46.551Z,99614.53
2022-08-17T14:15:24.875Z,99611.78
2022-08-17T14:18:12.221Z,99607.44
2022-08-17T14:20:40.023Z,99595.81
2022-08-17T14:23:08.321Z,99588.41
2022-08-17T14:25:35.964Z,99595.19
2022-08-17T14:28:07.012Z,99588.94
2022-08-17T14:30:35.673Z,99591.94
2022-08-17T14:33:03.130Z,99591.34
2022-08-17T14:35:30.510Z,99587.97
2022-08-17T14:37:58.381Z,99585.28
2022-08-17T14:40:26.251Z,99571.25
2022-08-17T14:42:57.796Z,99564.94
2022-08-17T14:45:29.572Z,99559.31
2022-08-17T14:48:08.315Z,99559.84
2022-08-17T14:50:40.894Z,99563.69
2022-08-17T14:53:12.452Z,99550.16
2022-08-17T14:55:40.746Z,99553.88
2022-08-17T14:58:09.064Z,99565.03
2022-08-17T15:00:38.487Z,99564.25
2022-08-17T15:03:06.241Z,99568.50
2022-08-17T15:05:38.128Z,99580.28
2022-08-17T15:08:07.014Z,99587.25
2022-08-17T15:10:35.670Z,99589.88
2022-08-17T15:13:03.382Z,99603.81
2022-08-17T15:15:31.132Z,99608.25
2022-08-17T15:17:59.882Z,99626.72
2022-08-17T15:20:30.217Z,99638.03
2022-08-17T15:22:59.059Z,99642.19
2022-08-17T15:25:31.606Z,99653.81
2022-08-17T15:27:59.984Z,99658.72
2022-08-17T15:30:28.402Z,99662.69
2022-08-17T15:32:58.976Z,99671.13
2022-08-17T15:35:32.784Z,99669.88
2022-08-17T15:38:11.292Z,99677.06
2022-08-17T15:40:48.359Z,99677.31
2022-08-17T15:43:32.586Z,99680.25
2022-08-17T15:46:15.171Z,99689.16
2022-08-17T15:48:51.539Z,99693.00
2022-08-17T15:51:34.966Z,99692.16
2022-08-17T15:54:22.222Z,99695.44
2022-08-17T15:56:50.577Z,99676.44
2022-08-17T15:59:18.413Z,99664.88
2022-08-17T16:03:14.083Z,99645.22
2022-08-17T16:04:33.112Z,99641.50
2022-08-17T16:07:00.842Z,99637.25
2022-08-17T16:09:28.358Z,99618.66
2022-08-17T16:11:56.304Z,99625.88
2022-08-17T16:14:32.453Z,99632.94
2022-08-17T16:17:02.671Z,99645.25
2022-08-17T16:19:30.495Z,99630.06
2022-08-17T16:21:58.010Z,99629.13
2022-08-17T16:24:25.845Z,99605.91
2022-08-17T16:26:53.419Z,99588.75
2022-08-17T16:29:21.570Z,99575.44
2022-08-17T16:31:49.726Z,99547.06
2022-08-17T16:34:18.896Z,99550.56
2022-08-17T16:36:54.648Z,99525.72
2022-08-17T16:39:26.893Z,99514.06
2022-08-17T16:41:56.023Z,99500.66
2022-08-17T16:44:25.656Z,99512.94
2022-08-17T16:46:53.465Z,99529.66
2022-08-17T16:49:35.821Z,99537.44
2022-08-17T16:52:09.886Z,99546.28
2022-08-17T16:54:44.246Z,99550.50
2022-08-17T16:57:15.601Z,99542.31
2022-08-17T16:59:47.939Z,99539.22
2022-08-17T17:02:27.558Z,99543.59
2022-08-17T17:05:40.194Z,99538.56
2022-08-17T17:08:28.375Z,99535.88
2022-08-17T17:11:09.098Z,99537.00
2022-08-17T17:13:54.916Z,99525.94
2022-08-17T17:16:52.941Z,99524.56
2022-08-17T17:19:38.001Z,99521.38
2022-08-17T17:22:35.944Z,99527.00
2022-08-17T17:25:39.604Z,99527.25
2022-08-17T17:28:24.703Z,99536.31
2022-08-17T17:31:14.741Z,99539.19
2022-08-17T17:34:00.508Z,99543.66
2022-08-17T17:36:48.405Z,99549.03
2022-08-17T17:39:36.584Z,99541.06
2022-08-17T17:42:11.227Z,99533.94
2022-08-17T17:44:53.583Z,99516.13
2022-08-17T17:47:21.578Z,99510.84
2022-08-17T17:49:49.477Z,99506.38
2022-08-17T17:53:07.548Z,99505.59
2022-08-17T17:55:59.890Z,99498.56
2022-08-17T17:59:03.977Z,99516.47
2022-08-17T18:01:51.374Z,99497.97
2022-08-17T18:04:30.513Z,99486.47
2022-08-17T18:07:30.163Z,99478.47
2022-08-17T18:10:30.201Z,99479.41
2022-08-17T18:13:50.081Z,99459.13
2022-08-17T18:16:20.535Z,99459.22
2022-08-17T18:18:50.548Z,99461.09
2022-08-17T18:21:27.575Z,99470.09
2022-08-17T18:24:02.169Z,99470.13
2022-08-17T18:26:53.352Z,99482.59
2022-08-17T18:29:34.385Z,99497.75
2022-08-17T18:32:29.003Z,99511.16
2022-08-17T18:35:11.281Z,99514.75
2022-08-17T18:37:44.875Z,99503.22
2022-08-17T18:40:18.441Z,99513.03
2022-08-17T18:43:08.407Z,99524.59
2022-08-17T18:45:53.680Z,99543.25
2022-08-17T18:48:54.191Z,99546.78
2022-08-17T18:52:23.237Z,99552.16
2022-08-17T18:55:15.396Z,99566.41
2022-08-17T18:57:54.959Z,99555.75
2022-08-17T19:00:42.940Z,99569.03
2022-08-17T19:03:16.361Z,99579.72
2022-08-17T19:05:55.713Z,99592.13
2022-08-17T19:08:28.905Z,99599.28
2022-08-17T19:11:27.934Z,99605.41
2022-08-17T19:14:08.531Z,99592.94
2022-08-17T19:17:06.224Z,99584.91
2022-08-17T19:20:31.177Z,99591.97
2022-08-17T19:23:30.280Z,99601.72
2022-08-17T19:26:01.649Z,99615.06
2022-08-17T19:28:56.593Z,99624.88
2022-08-17T19:31:31.142Z,99616.88
2022-08-17T19:34:01.524Z,99605.31
2022-08-17T19:36:49.814Z,99610.69
2022-08-17T19:40:03.543Z,99610.72
2022-08-17T19:43:21.821Z,99621.47
2022-08-17T19:46:35.643Z,99628.63
2022-08-17T19:49:46.329Z,99645.50
2022-08-17T19:53:33.221Z,99650.00
2022-08-17T19:56:45.968Z,99654.41
2022-08-17T19:59:48.613Z,99657.06
2022-08-17T20:03:29.202Z,99653.50
2022-08-17T20:06:12.533Z,99647.28
2022-08-17T20:09:20.451Z,99646.41
2022-08-17T20:12:04.008Z,99662.41
2022-08-17T20:14:55.661Z,99661.53
2022-08-17T20:17:32.250Z,99656.19
2022-08-17T20:20:19.549Z,99664.19
2022-08-17T20:23:18.313Z,99660.63
2022-08-17T20:26:19.272Z,99665.03
2022-08-17T20:29:37.251Z,99683.72
2022-08-17T20:32:24.016Z,99670.38
2022-08-17T20:35:31.967Z,99666.75
2022-08-17T20:38:12.157Z,99665.91
2022-08-17T20:40:54.676Z,99658.81
2022-08-17T20:43:33.150Z,99661.47
2022-08-17T20:46:40.490Z,99666.81
2022-08-17T20:49:44.433Z,99669.47
2022-08-17T20:52:36.473Z,99662.41
2022-08-17T20:55:05.445Z,99670.38
2022-08-17T20:57:32.605Z,99667.72
2022-08-17T21:00:15.489Z,99667.72
2022-08-17T21:02:50.577Z,99666.81
2022-08-17T21:06:09.402Z,99664.16
2022-08-17T21:09:19.062Z,99675.75
2022-08-17T21:12:04.410Z,99676.63
2022-08-17T21:15:04.053Z,99668.63
2022-08-17T21:18:09.778Z,99654.38
2022-08-17T21:21:19.905Z,99657.94
2022-08-17T21:24:11.905Z,99659.72
2022-08-17T21:27:02.480Z,99666.81
2022-08-17T21:29:34.206Z,99674.81
2022-08-17T21:32:09.021Z,99680.16
2022-08-17T21:34:43.601Z,99686.38
2022-08-17T21:37:45.298Z,99676.63
2022-08-17T21:40:18.646Z,99677.47
2022-08-17T21:43:00.774Z,99670.41
2022-08-17T21:45:36.151Z,99672.22
2022-08-17T21:48:25.089Z,99679.38
2022-08-17T21:51:10.918Z,99680.28
2022-08-17T21:54:02.742Z,99683.81
2022-08-17T21:56:39.108Z,99689.19
2022-08-17T21:59:27.309Z,99692.75
2022-08-17T22:02:19.535Z,99688.31
2022-08-17T22:05:10.999Z,99675.91
2022-08-17T22:07:48.525Z,99662.59
2022-08-17T22:10:44.518Z,99658.19
2022-08-17T22:13:36.305Z,99657.31
2022-08-17T22:16:29.261Z,99658.19
2022-08-17T22:18:59.180Z,99675.94
2022-08-17T22:21:27.247Z,99671.53
2022-08-17T22:24:21.587Z,99666.19
2022-08-17T22:27:11.414Z,99659.06
2022-08-17T22:29:58.417Z,99667.94
2022-08-17T22:32:45.502Z,99681.28
2022-08-17T22:35:43.195Z,99683.94
2022-08-17T22:38:19.350Z,99660.88
2022-08-17T22:40:56.695Z,99661.75
2022-08-17T22:43:28.558Z,99668.00
2022-08-17T22:46:00.335Z,99686.66
2022-08-17T22:48:30.317Z,99676.00
2022-08-17T22:51:14.819Z,99675.13
2022-08-17T22:54:33.334Z,99668.03
2022-08-17T22:57:23.553Z,99663.59
2022-08-17T22:59:55.109Z,99670.69
2022-08-17T23:02:27.356Z,99679.56
2022-08-17T23:05:16.482Z,99671.59
2022-08-17T23:07:46.570Z,99666.28
2022-08-17T23:10:14.863Z,99661.81
2022-08-17T23:12:42.734Z,99658.28
2022-08-17T23:15:17.657Z,99642.31
2022-08-17T23:17:46.145Z,99651.19
2022-08-17T23:20:17.980Z,99648.50
2022-08-17T23:22:52.049Z,99645.84
2022-08-17T23:25:31.668Z,99631.69
2022-08-17T23:28:03.361Z,99629.03
2022-08-17T23:30:41.414Z,99618.34
2022-08-17T23:33:26.567Z,99620.13
2022-08-17T23:35:54.099Z,99639.66
2022-08-17T23:38:22.295Z,99637.88
2022-08-17T23:40:49.617Z,99635.22
2022-08-17T23:43:25.325Z,99624.56
2022-08-17T23:45:58.462Z,99621.91
2022-08-17T23:48:36.290Z,99625.47
2022-08-17T23:51:15.329Z,99630.81
2022-08-17T23:53:50.335Z,99641.44
2022-08-17T23:56:23.833Z,99645.00
2022-08-17T23:58:52.011Z,99635.22
